Eversley, United Kingdom
Current Conditions -  °F | °C
As of 6:20 PM on Sunday 23 Nov 2014 (Local Time) from EGLF Reporting Station
Broken Clouds Broken Clouds  
Wind Chill:   Ceiling: 1200
Heat Index:   Visibility: 5mi
Dew Point:   Wind: 6mph
Humidity: 93%   Direction: 310°NW
Pressure: 30.09"   Gusts: NA
Location:  51.35°N, 0.89°W
Report Text: EGLF 231820Z 31005KT 260V330 8000 BKN012 07/06 Q1019
Loading
Personal Weather Stations






























Interactive Weather Map New forecast layout! Learn more

10-Day Weather Forecast

Advertisements
Track Severe Weather on mobile